createdAt,value
2023-05-11T00:01:29.867Z,0.40
2023-05-11T00:03:57.333Z,0.57
2023-05-11T00:06:25.052Z,0.47
2023-05-11T00:08:52.897Z,0.70
2023-05-11T00:11:21.312Z,0.53
2023-05-11T00:13:48.897Z,0.47
2023-05-11T00:16:16.557Z,0.40
2023-05-11T00:18:44.151Z,0.53
2023-05-11T00:21:11.739Z,0.30
2023-05-11T00:23:39.165Z,0.50
2023-05-11T00:26:06.711Z,0.53
2023-05-11T00:28:34.152Z,0.40
2023-05-11T00:31:04.463Z,0.60
2023-05-11T00:33:31.825Z,0.30
2023-05-11T00:35:59.346Z,0.50
2023-05-11T00:38:26.958Z,0.50
2023-05-11T00:40:54.380Z,0.50
2023-05-11T00:43:21.733Z,0.43
2023-05-11T00:45:50.019Z,0.60
2023-05-11T00:48:17.811Z,0.60
2023-05-11T00:50:45.679Z,0.80
2023-05-11T00:53:13.381Z,0.80
2023-05-11T00:55:41.029Z,0.50
2023-05-11T00:58:08.552Z,0.50
2023-05-11T01:00:37.013Z,0.70
2023-05-11T01:03:04.677Z,0.40
2023-05-11T01:05:52.295Z,0.50
2023-05-11T01:08:21.486Z,0.50
2023-05-11T01:10:48.808Z,0.40
2023-05-11T01:13:16.171Z,0.30
2023-05-11T01:15:46.267Z,0.60
2023-05-11T01:18:21.468Z,0.50
2023-05-11T01:20:49.909Z,0.60
2023-05-11T01:23:44.403Z,0.50
2023-05-11T01:26:19.764Z,0.53
2023-05-11T01:29:05.303Z,0.60
2023-05-11T01:31:34.845Z,0.43
2023-05-11T01:34:04.663Z,0.40
2023-05-11T01:36:35.843Z,0.50
2023-05-11T01:39:08.511Z,0.50
2023-05-11T01:41:36.776Z,0.60
2023-05-11T01:44:06.099Z,0.63
2023-05-11T01:46:34.557Z,0.40
2023-05-11T01:49:03.697Z,0.60
2023-05-11T01:51:34.504Z,0.50
2023-05-11T01:54:02.636Z,0.50
2023-05-11T01:56:31.253Z,0.50
2023-05-11T01:58:59.700Z,0.50
2023-05-11T02:01:28.049Z,0.43
2023-05-11T02:03:56.034Z,0.50
2023-05-11T02:06:25.127Z,0.60
2023-05-11T02:08:53.424Z,0.60
2023-05-11T02:11:23.504Z,0.50
2023-05-11T02:13:52.591Z,0.67
2023-05-11T02:16:20.643Z,0.70
2023-05-11T02:18:48.474Z,0.63
2023-05-11T02:21:17.258Z,0.50
2023-05-11T02:23:46.725Z,0.40
2023-05-11T02:26:15.809Z,0.50
2023-05-11T02:28:44.085Z,0.70
2023-05-11T02:31:17.376Z,0.60
2023-05-11T02:33:50.783Z,0.40
2023-05-11T02:36:21.551Z,0.50
2023-05-11T02:38:50.009Z,0.47
2023-05-11T02:41:19.244Z,0.50
2023-05-11T02:43:48.588Z,0.50
2023-05-11T02:46:18.009Z,0.60
2023-05-11T02:48:48.047Z,0.60
2023-05-11T02:51:16.787Z,0.50
2023-05-11T02:53:45.818Z,0.70
2023-05-11T02:56:13.853Z,0.60
2023-05-11T02:58:41.500Z,0.60
2023-05-11T03:01:09.222Z,0.50
2023-05-11T03:03:36.802Z,0.90
2023-05-11T03:06:04.388Z,0.50
2023-05-11T03:08:32.083Z,0.50
2023-05-11T03:11:00.128Z,0.43
2023-05-11T03:13:28.562Z,0.50
2023-05-11T03:15:56.363Z,0.50
2023-05-11T03:18:24.463Z,0.60
2023-05-11T03:20:52.360Z,0.50
2023-05-11T03:23:20.364Z,0.70
2023-05-11T03:25:48.004Z,0.40
2023-05-11T03:28:15.647Z,0.40
2023-05-11T03:30:46.096Z,0.60
2023-05-11T03:33:13.632Z,0.70
2023-05-11T03:35:42.486Z,0.60
2023-05-11T03:38:11.144Z,0.60
2023-05-11T03:40:39.288Z,0.80
2023-05-11T03:43:10.406Z,0.50
2023-05-11T03:45:38.409Z,0.40
2023-05-11T03:48:06.655Z,0.53
2023-05-11T03:50:34.729Z,0.50
2023-05-11T03:53:02.330Z,0.70
2023-05-11T03:55:29.965Z,0.40
2023-05-11T03:57:57.524Z,0.40
2023-05-11T04:00:25.021Z,0.47
2023-05-11T04:02:53.107Z,0.70
2023-05-11T04:05:20.658Z,0.50
2023-05-11T04:07:48.079Z,0.50
2023-05-11T04:10:15.812Z,0.70
2023-05-11T04:12:43.347Z,0.50
2023-05-11T04:15:11.332Z,0.57
2023-05-11T04:17:38.718Z,0.40
2023-05-11T04:20:06.544Z,0.53
2023-05-11T04:22:33.927Z,0.40
2023-05-11T04:25:01.315Z,0.70
2023-05-11T04:27:28.694Z,0.60
2023-05-11T04:29:56.312Z,0.43
2023-05-11T04:32:23.715Z,0.70
2023-05-11T04:34:51.372Z,0.77
2023-05-11T04:37:18.852Z,0.50
2023-05-11T04:39:46.245Z,0.80
2023-05-11T04:42:13.689Z,0.77
2023-05-11T04:44:41.247Z,0.60
2023-05-11T04:47:11.640Z,0.50
2023-05-11T04:49:39.745Z,0.60
2023-05-11T04:52:07.230Z,0.50
2023-05-11T04:54:34.769Z,0.53
2023-05-11T04:57:02.261Z,0.50
2023-05-11T04:59:29.681Z,0.50
2023-05-11T05:01:57.042Z,0.50
2023-05-11T05:04:24.447Z,0.60
2023-05-11T05:06:51.844Z,0.70
2023-05-11T05:09:19.204Z,0.50
2023-05-11T05:11:46.487Z,0.50
2023-05-11T05:14:13.844Z,0.70
2023-05-11T05:16:41.277Z,0.70
2023-05-11T05:19:12.964Z,0.90
2023-05-11T05:21:40.869Z,0.60
2023-05-11T05:24:11.343Z,0.50
2023-05-11T05:26:38.888Z,0.90
2023-05-11T05:29:07.141Z,0.63
2023-05-11T05:31:34.603Z,0.60
2023-05-11T05:34:02.016Z,0.80
2023-05-11T05:36:29.445Z,0.60
2023-05-11T05:38:56.859Z,0.70
2023-05-11T05:41:24.207Z,0.50
2023-05-11T05:43:51.765Z,0.60
2023-05-11T05:46:19.110Z,0.57
2023-05-11T05:48:46.529Z,0.60
2023-05-11T05:51:13.964Z,0.90
2023-05-11T05:53:41.293Z,0.60
2023-05-11T05:56:08.760Z,0.70
2023-05-11T05:58:36.165Z,0.60
2023-05-11T06:01:03.610Z,0.97
2023-05-11T06:03:31.128Z,1.10
2023-05-11T06:05:58.762Z,0.60
2023-05-11T06:08:26.210Z,0.83
2023-05-11T06:10:53.643Z,0.70
2023-05-11T06:13:21.021Z,0.90
2023-05-11T06:15:48.353Z,0.60
2023-05-11T06:18:16.080Z,0.73
2023-05-11T06:20:43.489Z,0.87
2023-05-11T06:23:14.102Z,0.67
2023-05-11T06:25:42.566Z,0.90
2023-05-11T06:28:10.014Z,0.70
2023-05-11T06:30:37.560Z,0.70
2023-05-11T06:33:05.002Z,0.60
2023-05-11T06:35:32.322Z,0.60
2023-05-11T06:37:59.774Z,0.90
2023-05-11T06:40:27.847Z,0.87
2023-05-11T06:42:55.374Z,0.60
2023-05-11T06:45:22.897Z,0.50
2023-05-11T06:47:50.360Z,0.67
2023-05-11T06:50:20.164Z,0.87
2023-05-11T06:52:48.619Z,0.73
2023-05-11T06:55:15.974Z,0.67
2023-05-11T06:57:43.286Z,0.77
2023-05-11T07:00:11.095Z,0.80
2023-05-11T07:02:38.461Z,0.70
2023-05-11T07:05:06.150Z,0.60
2023-05-11T07:07:33.725Z,0.70
2023-05-11T07:10:01.206Z,0.77
2023-05-11T07:12:28.688Z,0.60
2023-05-11T07:14:56.166Z,0.70
2023-05-11T07:17:23.712Z,0.57
2023-05-11T07:19:54.880Z,0.60
2023-05-11T07:22:22.522Z,0.87
2023-05-11T07:24:49.982Z,0.80
2023-05-11T07:27:17.444Z,0.70
2023-05-11T07:29:44.883Z,0.60
2023-05-11T07:32:12.367Z,1.00
2023-05-11T07:34:41.287Z,0.60
2023-05-11T07:37:08.607Z,0.70
2023-05-11T07:39:36.199Z,0.70
2023-05-11T07:42:04.202Z,0.70
2023-05-11T07:44:31.530Z,0.63
2023-05-11T07:46:58.998Z,0.80
2023-05-11T07:49:35.633Z,0.60
2023-05-11T07:52:11.311Z,0.70
2023-05-11T07:54:40.271Z,0.60
2023-05-11T07:57:08.160Z,0.77
2023-05-11T07:59:36.181Z,0.80
2023-05-11T08:02:04.758Z,0.60
2023-05-11T08:04:32.774Z,0.70
2023-05-11T08:07:00.639Z,0.63
2023-05-11T08:09:28.081Z,0.87
2023-05-11T08:11:56.824Z,0.77
2023-05-11T08:14:25.252Z,0.60
2023-05-11T08:16:52.722Z,0.63
2023-05-11T08:19:20.057Z,1.00
2023-05-11T08:21:47.501Z,0.83
2023-05-11T08:24:14.950Z,0.60
2023-05-11T08:26:42.364Z,0.50
2023-05-11T08:29:09.766Z,0.73
2023-05-11T08:31:37.330Z,0.43
2023-05-11T08:34:08.387Z,0.60
2023-05-11T08:36:44.064Z,0.60
2023-05-11T08:39:13.925Z,0.80
2023-05-11T08:41:41.505Z,0.70
2023-05-11T08:44:09.087Z,0.50
2023-05-11T08:46:37.683Z,0.60
2023-05-11T08:49:05.255Z,0.80
2023-05-11T08:51:32.883Z,0.60
2023-05-11T08:54:00.404Z,0.70
2023-05-11T08:56:28.043Z,0.63
2023-05-11T08:58:57.056Z,0.60
2023-05-11T09:01:24.699Z,0.50
2023-05-11T09:03:52.608Z,0.50
2023-05-11T09:06:24.344Z,1.13
2023-05-11T09:08:51.922Z,0.50
2023-05-11T09:11:19.324Z,0.63
2023-05-11T09:13:46.874Z,1.30
2023-05-11T09:18:50.971Z,0.80
2023-05-11T09:21:18.729Z,0.60
2023-05-11T09:23:46.084Z,0.53
2023-05-11T09:26:17.164Z,0.50
2023-05-11T09:29:02.518Z,0.40
2023-05-11T09:31:39.197Z,0.83
2023-05-11T09:34:10.369Z,0.40
2023-05-11T09:36:37.807Z,0.60
2023-05-11T09:39:05.409Z,0.50
2023-05-11T09:41:35.776Z,0.40
2023-05-11T09:44:10.901Z,0.40
2023-05-11T09:46:39.216Z,0.50
2023-05-11T09:49:07.233Z,0.50
2023-05-11T09:51:36.090Z,0.50
2023-05-11T09:54:17.930Z,0.60
2023-05-11T09:56:47.344Z,0.40
2023-05-11T09:59:33.525Z,0.40
2023-05-11T10:02:15.920Z,0.50
2023-05-11T10:04:43.448Z,0.30
2023-05-11T10:07:10.926Z,0.30
2023-05-11T10:09:39.017Z,0.30
2023-05-11T10:12:06.803Z,0.37
2023-05-11T10:14:34.847Z,0.40
2023-05-11T10:17:02.528Z,0.50
2023-05-11T10:19:30.098Z,0.30
2023-05-11T10:21:57.673Z,0.50
2023-05-11T10:24:25.409Z,0.50
2023-05-11T10:26:53.298Z,0.27
2023-05-11T10:29:20.727Z,0.30
2023-05-11T10:31:52.176Z,0.40
2023-05-11T10:34:20.954Z,0.40
2023-05-11T10:36:48.922Z,0.50
2023-05-11T10:39:19.146Z,0.40
2023-05-11T10:41:51.783Z,0.30
2023-05-11T10:44:25.658Z,0.40
2023-05-11T10:46:58.885Z,0.30
2023-05-11T10:49:29.160Z,0.40
2023-05-11T10:51:59.282Z,0.40
2023-05-11T10:54:30.748Z,0.63
2023-05-11T10:57:13.522Z,0.30
2023-05-11T11:00:05.889Z,1.10
2023-05-11T11:02:33.544Z,0.63
2023-05-11T11:05:05.755Z,0.40
2023-05-11T11:07:33.365Z,0.30
2023-05-11T11:10:01.750Z,0.40
2023-05-11T11:12:30.160Z,0.30
2023-05-11T11:14:59.083Z,0.40
2023-05-11T11:17:35.304Z,0.30
2023-05-11T11:20:07.779Z,0.67
2023-05-11T11:22:35.430Z,0.40
2023-05-11T11:25:05.853Z,0.43
2023-05-11T11:27:42.105Z,0.33
2023-05-11T11:30:26.610Z,0.37
2023-05-11T11:32:55.391Z,0.40
2023-05-11T11:35:41.765Z,0.57
2023-05-11T11:38:10.723Z,0.40
2023-05-11T11:40:49.511Z,0.30
2023-05-11T11:43:21.249Z,0.40
2023-05-11T11:45:55.898Z,0.70
2023-05-11T11:48:24.698Z,0.60
2023-05-11T11:51:03.330Z,0.20
2023-05-11T11:53:41.052Z,0.20
2023-05-11T11:56:09.259Z,0.40
2023-05-11T11:58:42.835Z,0.40
2023-05-11T12:01:14.784Z,0.30
2023-05-11T12:03:43.254Z,1.20
2023-05-11T12:06:12.317Z,0.30
2023-05-11T12:08:40.441Z,0.20
2023-05-11T12:11:08.560Z,0.20
2023-05-11T12:13:36.448Z,0.30
2023-05-11T12:16:09.928Z,0.20
2023-05-11T12:18:37.487Z,0.20
2023-05-11T12:21:05.165Z,0.40
2023-05-11T12:23:32.979Z,0.20
2023-05-11T12:26:06.926Z,0.20
2023-05-11T12:28:34.763Z,0.22
2023-05-11T12:31:02.440Z,0.20
2023-05-11T12:33:29.971Z,0.30
2023-05-11T12:35:57.761Z,0.60
2023-05-11T12:38:25.175Z,0.20
2023-05-11T12:40:53.722Z,0.13
2023-05-11T12:43:24.602Z,0.22
2023-05-11T12:45:52.062Z,0.30
2023-05-11T12:48:19.609Z,0.20
2023-05-11T12:50:47.336Z,0.30
2023-05-11T12:53:21.005Z,0.20
2023-05-11T12:56:09.031Z,0.30
2023-05-11T12:58:38.122Z,0.30
2023-05-11T13:01:06.434Z,0.23
2023-05-11T13:03:35.395Z,0.27
2023-05-11T13:06:09.340Z,0.30
2023-05-11T13:08:40.365Z,0.30
2023-05-11T13:11:25.531Z,0.20
2023-05-11T13:13:57.463Z,0.20
2023-05-11T13:16:28.811Z,0.20
2023-05-11T13:18:59.960Z,0.30
2023-05-11T13:21:29.372Z,0.20
2023-05-11T13:23:57.407Z,0.20
2023-05-11T13:26:31.409Z,0.20
2023-05-11T13:29:10.324Z,0.30
2023-05-11T13:31:49.347Z,0.30
2023-05-11T13:34:16.939Z,0.30
2023-05-11T13:36:44.767Z,0.20
2023-05-11T13:39:12.451Z,0.30
2023-05-11T13:41:39.850Z,0.20
2023-05-11T13:44:07.239Z,0.20
2023-05-11T13:46:34.651Z,0.30
2023-05-11T13:49:02.009Z,0.30
2023-05-11T13:51:29.602Z,0.23
2023-05-11T13:53:59.439Z,0.20
2023-05-11T13:56:27.014Z,0.30
2023-05-11T13:58:54.451Z,0.30
2023-05-11T14:01:22.223Z,0.20
2023-05-11T14:03:53.516Z,0.20
2023-05-11T14:06:22.748Z,0.30
2023-05-11T14:08:50.203Z,0.30
2023-05-11T14:11:17.532Z,0.20
2023-05-11T14:13:44.893Z,0.13
2023-05-11T14:16:12.318Z,0.20
2023-05-11T14:18:39.731Z,0.20
2023-05-11T14:21:07.208Z,0.20
2023-05-11T14:23:35.163Z,0.20
2023-05-11T14:26:04.123Z,0.20
2023-05-11T14:28:31.847Z,0.30
2023-05-11T14:30:59.594Z,0.10
2023-05-11T14:33:26.965Z,0.20
2023-05-11T14:35:54.929Z,0.30
2023-05-11T14:38:22.416Z,0.20
2023-05-11T14:40:52.438Z,0.30
2023-05-11T14:43:20.078Z,0.30
2023-05-11T14:45:47.589Z,0.30
2023-05-11T14:48:14.934Z,0.10
2023-05-11T14:50:43.286Z,0.30
2023-05-11T14:53:11.103Z,0.30
2023-05-11T14:55:38.868Z,0.30
2023-05-11T14:58:09.731Z,0.30
2023-05-11T15:00:40.604Z,0.10
2023-05-11T15:03:11.303Z,0.20
2023-05-11T15:05:38.965Z,0.20
2023-05-11T15:08:15.358Z,0.30
2023-05-11T15:10:49.927Z,0.30
2023-05-11T15:13:17.402Z,0.20
2023-05-11T15:15:44.843Z,0.40
2023-05-11T15:18:14.446Z,0.20
2023-05-11T15:20:42.730Z,0.13
2023-05-11T15:23:11.817Z,0.30
2023-05-11T15:25:39.328Z,0.20
2023-05-11T15:28:06.822Z,0.10
2023-05-11T15:30:34.459Z,0.20
2023-05-11T15:33:01.914Z,0.30
2023-05-11T15:35:29.584Z,0.20
2023-05-11T15:37:57.227Z,0.30
2023-05-11T15:40:25.966Z,0.20
2023-05-11T15:42:53.527Z,0.30
2023-05-11T15:45:21.236Z,0.23
2023-05-11T15:47:48.842Z,0.30
2023-05-11T15:50:16.597Z,0.20
2023-05-11T15:52:44.450Z,0.30
2023-05-11T15:55:11.966Z,0.20
2023-05-11T15:57:39.443Z,0.20
2023-05-11T16:00:10.160Z,0.20
2023-05-11T16:02:37.693Z,0.20
2023-05-11T16:05:06.001Z,0.20
2023-05-11T16:07:33.533Z,0.20
2023-05-11T16:10:01.309Z,0.20
2023-05-11T16:12:28.801Z,0.20
2023-05-11T16:14:56.683Z,0.20
2023-05-11T16:17:24.196Z,0.20
2023-05-11T16:19:51.848Z,0.30
2023-05-11T16:22:19.251Z,0.20
2023-05-11T16:24:46.761Z,0.20
2023-05-11T16:27:14.088Z,0.13
2023-05-11T16:29:41.505Z,0.20
2023-05-11T16:32:08.918Z,0.30
2023-05-11T16:34:36.445Z,0.20
2023-05-11T16:37:04.043Z,0.20
2023-05-11T16:39:31.360Z,0.30
2023-05-11T16:41:58.684Z,0.20
2023-05-11T16:44:26.201Z,0.20
2023-05-11T16:46:53.647Z,0.50
2023-05-11T16:49:21.200Z,0.30
2023-05-11T16:51:48.576Z,0.20
2023-05-11T16:54:15.956Z,0.20
2023-05-11T16:56:43.283Z,0.30
2023-05-11T16:59:11.280Z,0.20
2023-05-11T17:01:38.708Z,0.20
2023-05-11T17:04:06.134Z,0.60
2023-05-11T17:06:33.649Z,0.20
2023-05-11T17:09:01.211Z,0.30
2023-05-11T17:11:31.806Z,0.20
2023-05-11T17:13:59.206Z,0.20
2023-05-11T17:16:26.975Z,0.30
2023-05-11T17:18:54.963Z,0.20
2023-05-11T17:21:24.175Z,0.20
2023-05-11T17:23:51.566Z,0.20
2023-05-11T17:26:18.888Z,0.30
2023-05-11T17:28:46.299Z,0.30
2023-05-11T17:31:14.909Z,0.20
2023-05-11T17:33:43.054Z,0.20
2023-05-11T17:36:11.826Z,0.20
2023-05-11T17:38:39.321Z,0.27
2023-05-11T17:41:06.886Z,0.20
2023-05-11T17:43:38.168Z,0.30
2023-05-11T17:46:06.200Z,0.20
2023-05-11T17:48:33.817Z,0.20
2023-05-11T17:51:01.367Z,0.40
2023-05-11T17:53:29.134Z,0.20
2023-05-11T17:55:59.084Z,0.37
2023-05-11T17:58:27.053Z,0.20
2023-05-11T18:00:54.538Z,0.50
2023-05-11T18:03:22.245Z,0.30
2023-05-11T18:05:49.803Z,0.20
2023-05-11T18:08:17.575Z,0.13
2023-05-11T18:10:45.526Z,0.20
2023-05-11T18:13:14.266Z,0.10
2023-05-11T18:15:43.513Z,0.20
2023-05-11T18:18:11.266Z,0.33
2023-05-11T18:20:39.409Z,0.30
2023-05-11T18:23:06.775Z,0.13
2023-05-11T18:25:34.527Z,0.40
2023-05-11T18:28:02.554Z,0.23
2023-05-11T18:30:30.448Z,0.40
2023-05-11T18:32:57.985Z,0.20
2023-05-11T18:35:25.483Z,1.40
2023-05-11T18:37:53.014Z,1.77
2023-05-11T18:40:20.806Z,1.17
2023-05-11T18:42:48.847Z,0.50
2023-05-11T18:45:17.338Z,0.30
2023-05-11T18:47:46.458Z,0.30
2023-05-11T18:50:14.808Z,0.30
2023-05-11T18:52:42.488Z,0.20
2023-05-11T18:55:10.426Z,0.30
2023-05-11T18:57:39.672Z,0.20
2023-05-11T19:00:07.975Z,0.27
2023-05-11T19:02:35.461Z,0.27
2023-05-11T19:05:04.367Z,0.80
2023-05-11T19:07:32.050Z,0.30
2023-05-11T19:09:59.431Z,0.27
2023-05-11T19:12:27.393Z,0.30
2023-05-11T19:14:57.805Z,0.40
2023-05-11T19:17:25.268Z,0.20
2023-05-11T19:19:52.968Z,0.30
2023-05-11T19:22:21.468Z,0.40
2023-05-11T19:24:48.972Z,0.20
2023-05-11T19:27:17.410Z,0.40
2023-05-11T19:29:44.929Z,0.33
2023-05-11T19:32:12.449Z,0.27
2023-05-11T19:34:39.963Z,0.27
2023-05-11T19:37:07.400Z,0.23
2023-05-11T19:39:34.919Z,0.20
2023-05-11T19:42:02.943Z,0.27
2023-05-11T19:44:33.267Z,0.40
2023-05-11T19:47:00.999Z,0.30
2023-05-11T19:49:29.564Z,0.33
2023-05-11T19:51:56.998Z,0.30
2023-05-11T19:54:24.444Z,0.30
2023-05-11T19:56:51.762Z,0.40
2023-05-11T19:59:19.600Z,0.40
2023-05-11T20:01:47.124Z,0.30
2023-05-11T20:04:15.062Z,0.40
2023-05-11T20:06:42.565Z,0.20
2023-05-11T20:09:10.042Z,0.37
2023-05-11T20:11:37.843Z,0.27
2023-05-11T20:14:06.254Z,0.30
2023-05-11T20:16:33.806Z,0.30
2023-05-11T20:19:01.509Z,0.20
2023-05-11T20:21:29.089Z,0.40
2023-05-11T20:23:56.838Z,0.30
2023-05-11T20:26:24.527Z,0.30
2023-05-11T20:28:51.962Z,0.30
2023-05-11T20:31:21.537Z,0.40
2023-05-11T20:36:19.338Z,0.40
2023-05-11T20:38:46.880Z,0.30
2023-05-11T20:41:14.281Z,0.30
2023-05-11T20:43:41.602Z,0.40
2023-05-11T20:46:09.059Z,0.50
2023-05-11T20:48:40.956Z,0.33
2023-05-11T20:51:09.774Z,0.20
2023-05-11T20:53:37.248Z,0.40
2023-05-11T20:56:04.735Z,0.47
2023-05-11T20:58:32.210Z,0.27
2023-05-11T21:00:59.787Z,0.20
2023-05-11T21:03:27.893Z,0.20
2023-05-11T21:05:56.465Z,0.20
2023-05-11T21:08:23.802Z,0.30
2023-05-11T21:10:51.200Z,0.40
2023-05-11T21:13:18.958Z,0.20
2023-05-11T21:15:46.288Z,0.63
2023-05-11T21:18:13.790Z,0.40
2023-05-11T21:20:41.191Z,0.30
2023-05-11T21:23:08.850Z,0.30
2023-05-11T21:25:36.526Z,0.30
2023-05-11T21:28:05.012Z,0.50
2023-05-11T21:30:32.383Z,0.20
2023-05-11T21:32:59.914Z,0.30
2023-05-11T21:35:27.331Z,0.40
2023-05-11T21:37:54.682Z,0.30
2023-05-11T21:40:22.433Z,0.30
2023-05-11T21:42:50.052Z,0.33
2023-05-11T21:45:19.842Z,0.30
2023-05-11T21:47:47.461Z,0.37
2023-05-11T21:50:14.934Z,0.30
2023-05-11T21:52:42.572Z,0.40
2023-05-11T21:55:10.366Z,0.37
2023-05-11T21:57:37.825Z,0.23
2023-05-11T22:00:05.647Z,0.20
2023-05-11T22:02:33.041Z,0.20
2023-05-11T22:05:00.599Z,0.20
2023-05-11T22:07:28.047Z,0.20
2023-05-11T22:09:55.653Z,0.20
2023-05-11T22:12:23.089Z,0.20
2023-05-11T22:14:50.606Z,0.20
2023-05-11T22:17:18.049Z,0.37
2023-05-11T22:19:45.452Z,0.40
2023-05-11T22:22:12.886Z,0.30
2023-05-11T22:24:40.212Z,0.33
2023-05-11T22:27:15.592Z,0.40
2023-05-11T22:29:43.649Z,0.30
2023-05-11T22:32:12.149Z,0.33
2023-05-11T22:34:39.725Z,0.40
2023-05-11T22:37:07.243Z,0.30
2023-05-11T22:39:37.745Z,0.40
2023-05-11T22:42:05.269Z,0.30
2023-05-11T22:44:32.643Z,0.30
2023-05-11T22:47:00.165Z,0.40
2023-05-11T22:49:28.688Z,0.50
2023-05-11T22:51:58.823Z,0.40
2023-05-11T22:54:29.452Z,0.43
2023-05-11T22:56:57.492Z,0.53
2023-05-11T22:59:24.961Z,0.50
2023-05-11T23:01:52.562Z,0.43
2023-05-11T23:04:20.002Z,0.50
2023-05-11T23:06:47.365Z,0.50
2023-05-11T23:09:16.100Z,0.57
2023-05-11T23:11:44.443Z,0.47
2023-05-11T23:14:11.885Z,0.60
2023-05-11T23:16:39.326Z,0.33
2023-05-11T23:19:06.851Z,0.50
2023-05-11T23:21:34.486Z,0.50
2023-05-11T23:24:02.044Z,0.47
2023-05-11T23:26:29.323Z,0.33
2023-05-11T23:28:59.732Z,0.37
2023-05-11T23:31:28.485Z,0.43
2023-05-11T23:33:55.981Z,0.50
2023-05-11T23:36:23.330Z,0.60
2023-05-11T23:38:50.763Z,0.60
2023-05-11T23:41:18.170Z,0.50
2023-05-11T23:43:45.647Z,0.50
2023-05-11T23:46:13.171Z,0.50
2023-05-11T23:48:40.602Z,0.50
2023-05-11T23:51:08.084Z,0.90
2023-05-11T23:53:35.454Z,0.60
2023-05-11T23:56:02.964Z,0.60
2023-05-11T23:58:30.361Z,0.57
